createdAt,value
2022-12-29T00:00:44.168Z,99902.17
2022-12-29T00:02:48.879Z,99892.85
2022-12-29T00:04:53.547Z,99899.12
2022-12-29T00:06:58.032Z,99892.34
2022-12-29T00:09:02.402Z,99901.08
2022-12-29T00:11:06.733Z,99887.16
2022-12-29T00:13:11.129Z,99881.28
2022-12-29T00:15:15.593Z,99883.13
2022-12-29T00:17:21.094Z,99877.5
2022-12-29T00:19:25.447Z,99874.98
2022-12-29T00:21:29.772Z,99882.2
2022-12-29T00:23:34.141Z,99888.19
2022-12-29T00:25:38.514Z,99883.16
2022-12-29T00:27:42.856Z,99884.45
2022-12-29T00:29:47.222Z,99877.52
2022-12-29T00:31:51.761Z,99868.05
2022-12-29T00:33:56.183Z,99866.11
2022-12-29T00:36:00.519Z,99868.88
2022-12-29T00:38:04.884Z,99854.94
2022-12-29T00:40:09.247Z,99856.55
2022-12-29T00:42:13.620Z,99845.3
2022-12-29T00:44:18.063Z,99847.9
2022-12-29T00:46:22.605Z,99844.64
2022-12-29T00:48:27.066Z,99843.16
2022-12-29T00:50:31.431Z,99842.52
2022-12-29T00:52:35.897Z,99837.48
2022-12-29T00:54:40.212Z,99837.88
2022-12-29T00:56:44.679Z,99837.5
2022-12-29T00:58:49.026Z,99830.41
2022-12-29T01:00:53.482Z,99819.69
2022-12-29T01:02:58.259Z,99829.52
2022-12-29T01:05:03.141Z,99827.08
2022-12-29T01:07:08.147Z,99824.11
2022-12-29T01:09:12.533Z,99816.72
2022-12-29T01:11:18.644Z,99825.5
2022-12-29T01:13:23.019Z,99827.88
2022-12-29T01:15:27.346Z,99824.72
2022-12-29T01:17:31.721Z,99825.66
2022-12-29T01:19:36.101Z,99826.85
2022-12-29T01:21:40.455Z,99819.11
2022-12-29T01:23:44.839Z,99820.61
2022-12-29T01:25:49.168Z,99818.72
2022-12-29T01:27:53.581Z,99818.38
2022-12-29T01:29:57.915Z,99816.07
2022-12-29T01:32:02.508Z,99813.6
2022-12-29T01:34:07.013Z,99816.51
2022-12-29T01:36:11.588Z,99811.42
2022-12-29T01:38:15.919Z,99809.2
2022-12-29T01:40:21.517Z,99811.31
2022-12-29T01:42:25.978Z,99809.06
2022-12-29T01:44:30.301Z,99807.55
2022-12-29T01:46:34.687Z,99803.42
2022-12-29T01:48:39.048Z,99811
2022-12-29T01:50:43.437Z,99801.31
2022-12-29T01:52:47.888Z,99795.06
2022-12-29T01:54:52.200Z,99795.44
2022-12-29T01:56:56.586Z,99784.91
2022-12-29T01:59:00.937Z,99787.44
2022-12-29T02:01:05.574Z,99774.17
2022-12-29T02:03:10.832Z,99781.86
2022-12-29T02:05:15.323Z,99761.16
2022-12-29T02:07:21.424Z,99769.92
2022-12-29T02:09:25.800Z,99763.88
2022-12-29T02:11:30.124Z,99753.72
2022-12-29T02:13:34.982Z,99762.51
2022-12-29T02:15:39.381Z,99760.98
2022-12-29T02:17:43.705Z,99756.78
2022-12-29T02:19:48.025Z,99752.55
2022-12-29T02:21:52.373Z,99755.82
2022-12-29T02:23:56.951Z,99756.11
2022-12-29T02:26:01.526Z,99750.98
2022-12-29T02:28:05.982Z,99753.73
2022-12-29T02:30:10.678Z,99753.63
2022-12-29T02:32:15.047Z,99750.95
2022-12-29T02:34:19.650Z,99752.63
2022-12-29T02:36:24.101Z,99751.49
2022-12-29T02:38:28.450Z,99740.68
2022-12-29T02:40:32.793Z,99730.73
2022-12-29T02:42:38.082Z,99734.97
2022-12-29T02:44:42.526Z,99735.08
2022-12-29T02:46:46.863Z,99725.14
2022-12-29T02:48:51.274Z,99727.14
2022-12-29T02:50:55.608Z,99729.27
2022-12-29T02:53:00.107Z,99727.59
2022-12-29T02:55:04.496Z,99736.41
2022-12-29T02:57:08.944Z,99726.75
2022-12-29T02:59:13.316Z,99726.46
2022-12-29T03:01:19.611Z,99720.52
2022-12-29T03:03:24.239Z,99730.72
2022-12-29T03:05:28.958Z,99726.45
2022-12-29T03:07:33.299Z,99717.83
2022-12-29T03:09:37.621Z,99715.38
2022-12-29T03:11:42.168Z,99708.61
2022-12-29T03:13:46.522Z,99713.13
2022-12-29T03:15:50.949Z,99707.33
2022-12-29T03:17:55.298Z,99703.41
2022-12-29T03:19:59.670Z,99710.98
2022-12-29T03:22:04.075Z,99702.37
2022-12-29T03:24:08.497Z,99716.58
2022-12-29T03:26:12.922Z,99712.83
2022-12-29T03:28:17.277Z,99724.95
2022-12-29T03:30:21.617Z,99725.78
2022-12-29T03:32:25.985Z,99727.16
2022-12-29T03:34:30.349Z,99731.22
2022-12-29T03:36:34.753Z,99716.22
2022-12-29T03:38:39.082Z,99719.82
2022-12-29T03:40:43.398Z,99726.47
2022-12-29T03:42:47.752Z,99724.77
2022-12-29T03:44:52.040Z,99724.46
2022-12-29T03:46:56.374Z,99726.81
2022-12-29T03:49:00.812Z,99724.1
2022-12-29T03:51:05.110Z,99732.39
2022-12-29T03:53:09.459Z,99728.89
2022-12-29T03:55:13.809Z,99730.23
2022-12-29T03:57:18.230Z,99731.53
2022-12-29T04:01:00.232Z,99731.87
2022-12-29T04:03:05.010Z,99737.73
2022-12-29T04:05:09.586Z,99735.01
2022-12-29T04:07:14.092Z,99720.17
2022-12-29T04:09:18.618Z,99710.49
2022-12-29T04:11:25.170Z,99702.23
2022-12-29T04:13:36.473Z,99710.17
2022-12-29T04:15:40.958Z,99703.2
2022-12-29T04:17:45.398Z,99701.73
2022-12-29T04:19:49.910Z,99691.48
2022-12-29T04:21:54.426Z,99695.98
2022-12-29T04:23:58.786Z,99694.58
2022-12-29T04:26:03.279Z,99688.94
2022-12-29T04:28:08.812Z,99687.73
2022-12-29T04:30:13.653Z,99682.72
2022-12-29T04:32:19.587Z,99681.45
2022-12-29T04:34:23.925Z,99685.38
2022-12-29T04:36:31.268Z,99679.75
2022-12-29T04:38:35.622Z,99683.53
2022-12-29T04:40:39.962Z,99681.4
2022-12-29T04:42:44.284Z,99674.06
2022-12-29T04:44:48.807Z,99675.21
2022-12-29T04:46:53.346Z,99678.73
2022-12-29T04:48:57.890Z,99670.66
2022-12-29T04:51:02.293Z,99674.05
2022-12-29T04:53:06.708Z,99677.13
2022-12-29T04:55:11.057Z,99671.22
2022-12-29T04:57:15.549Z,99672.11
2022-12-29T04:59:20.053Z,99671.53
2022-12-29T05:01:24.790Z,99668.81
2022-12-29T05:03:29.495Z,99673.27
2022-12-29T05:05:33.987Z,99670.61
2022-12-29T05:07:38.846Z,99665.88
2022-12-29T05:09:43.204Z,99666.2
2022-12-29T05:11:47.533Z,99660.52
2022-12-29T05:13:51.894Z,99665.23
2022-12-29T05:15:56.344Z,99657.64
2022-12-29T05:18:00.827Z,99655.32
2022-12-29T05:20:05.203Z,99648.2
2022-12-29T05:22:09.565Z,99655.17
2022-12-29T05:24:13.973Z,99654.45
2022-12-29T05:26:19.682Z,99649.23
2022-12-29T05:28:24.077Z,99644.37
2022-12-29T05:30:28.436Z,99640.72
2022-12-29T05:32:32.842Z,99638.17
2022-12-29T05:34:37.489Z,99638.37
2022-12-29T05:36:41.850Z,99630.09
2022-12-29T05:38:46.426Z,99635.52
2022-12-29T05:40:50.917Z,99634.89
2022-12-29T05:42:55.283Z,99626.52
2022-12-29T05:44:59.640Z,99627.09
2022-12-29T05:47:04.387Z,99629.83
2022-12-29T05:49:08.820Z,99623.13
2022-12-29T05:51:13.266Z,99630.2
2022-12-29T05:53:18.149Z,99635.98
2022-12-29T05:55:22.679Z,99635.95
2022-12-29T05:57:27.189Z,99643.09
2022-12-29T05:59:31.563Z,99631.49
2022-12-29T06:01:36.185Z,99632.3
2022-12-29T06:03:49.052Z,99636.39
2022-12-29T06:05:53.794Z,99635.98
2022-12-29T06:07:58.314Z,99635.89
2022-12-29T06:10:03.104Z,99638.53
2022-12-29T06:12:07.475Z,99637.91
2022-12-29T06:14:11.780Z,99637.42
2022-12-29T06:16:16.200Z,99633.98
2022-12-29T06:18:21.708Z,99627.28
2022-12-29T06:20:26.024Z,99631.26
2022-12-29T06:22:30.454Z,99631.26
2022-12-29T06:24:34.844Z,99628.91
2022-12-29T06:26:39.262Z,99629.41
2022-12-29T06:28:43.599Z,99622.08
2022-12-29T06:30:48.082Z,99616.08
2022-12-29T06:32:52.404Z,99617.7
2022-12-29T06:34:56.760Z,99623.84
2022-12-29T06:37:01.216Z,99627.95
2022-12-29T06:39:05.638Z,99632.67
2022-12-29T06:41:10.012Z,99634.84
2022-12-29T06:43:14.383Z,99630.7
2022-12-29T06:45:18.727Z,99631.21
2022-12-29T06:47:23.065Z,99634.34
2022-12-29T06:49:27.480Z,99645.66
2022-12-29T06:51:31.833Z,99643.92
2022-12-29T06:53:36.192Z,99644.74
2022-12-29T06:55:40.527Z,99641.61
2022-12-29T06:57:44.871Z,99643.31
2022-12-29T06:59:49.311Z,99646.36
2022-12-29T07:01:54.235Z,99637.34
2022-12-29T07:03:59.070Z,99644.15
2022-12-29T07:06:03.405Z,99648.97
2022-12-29T07:08:08.300Z,99643.9
2022-12-29T07:10:12.652Z,99646.16
2022-12-29T07:12:16.950Z,99643.72
2022-12-29T07:14:21.898Z,99647.56
2022-12-29T07:16:26.461Z,99644.23
2022-12-29T07:18:30.921Z,99644.72
2022-12-29T07:20:35.281Z,99643.48
2022-12-29T07:22:39.694Z,99647.59
2022-12-29T07:24:44.176Z,99642.66
2022-12-29T07:26:48.520Z,99632.7
2022-12-29T07:28:52.919Z,99630.8
2022-12-29T07:30:57.278Z,99636.64
2022-12-29T07:33:01.703Z,99644.02
2022-12-29T07:35:06.068Z,99643.5
2022-12-29T07:37:10.422Z,99641.8
2022-12-29T07:39:15.245Z,99638.08
2022-12-29T07:41:19.518Z,99644.72
2022-12-29T07:43:23.777Z,99630.09
2022-12-29T07:45:28.070Z,99634.3
2022-12-29T07:47:32.365Z,99639.12
2022-12-29T07:49:37.319Z,99642.27
2022-12-29T07:51:41.633Z,99633.48
2022-12-29T07:53:45.940Z,99625.75
2022-12-29T07:55:50.310Z,99634.94
2022-12-29T07:57:54.672Z,99628.49
2022-12-29T07:59:59.066Z,99639.75
2022-12-29T08:02:04.063Z,99637.11
2022-12-29T08:04:08.860Z,99638.67
2022-12-29T08:06:13.319Z,99640.19
2022-12-29T08:08:17.641Z,99648.47
2022-12-29T08:10:21.993Z,99647.34
2022-12-29T08:12:27.551Z,99642.89
2022-12-29T08:14:31.884Z,99650.81
2022-12-29T08:16:36.612Z,99651.5
2022-12-29T08:18:41.055Z,99652.05
2022-12-29T08:20:45.606Z,99645.88
2022-12-29T08:22:57.486Z,99647.3
2022-12-29T08:25:01.949Z,99656.19
2022-12-29T08:27:20.587Z,99658.23
2022-12-29T08:29:25.410Z,99657.91
2022-12-29T08:31:29.952Z,99656.24
2022-12-29T08:33:34.963Z,99654.02
2022-12-29T08:35:39.326Z,99654.61
2022-12-29T08:37:43.692Z,99644.67
2022-12-29T08:39:48.082Z,99650.7
2022-12-29T08:41:52.395Z,99648.39
2022-12-29T08:43:56.741Z,99652.67
2022-12-29T08:46:01.350Z,99651.31
2022-12-29T08:48:05.879Z,99664.83
2022-12-29T08:50:10.214Z,99658.75
2022-12-29T08:52:14.535Z,99668.66
2022-12-29T08:54:18.909Z,99659.25
2022-12-29T08:56:23.361Z,99664.28
2022-12-29T08:58:28.435Z,99667.81
2022-12-29T09:00:32.905Z,99665.84
2022-12-29T09:02:37.710Z,99682.22
2022-12-29T09:04:42.487Z,99672.18
2022-12-29T09:06:47.245Z,99662.83
2022-12-29T09:08:51.721Z,99667.16
2022-12-29T09:10:56.068Z,99669.84
2022-12-29T09:13:00.509Z,99666.89
2022-12-29T09:15:04.860Z,99661.8
2022-12-29T09:17:09.202Z,99666.63
2022-12-29T09:19:13.659Z,99671.16
2022-12-29T09:21:18.034Z,99671.98
2022-12-29T09:23:22.381Z,99669.91
2022-12-29T09:25:27.213Z,99674.27
2022-12-29T09:27:31.533Z,99682.65
2022-12-29T09:29:35.866Z,99687.8
2022-12-29T09:31:40.405Z,99691.23
2022-12-29T09:33:45.083Z,99684.14
2022-12-29T09:35:49.474Z,99691.13
2022-12-29T09:37:53.830Z,99691.93
2022-12-29T09:39:58.179Z,99685.91
2022-12-29T09:42:02.649Z,99686.31
2022-12-29T09:44:07.069Z,99677.06
2022-12-29T09:46:11.694Z,99669.19
2022-12-29T09:48:16.155Z,99667.29
2022-12-29T09:50:20.535Z,99662.88
2022-12-29T09:52:25.329Z,99659.31
2022-12-29T09:54:30.209Z,99660.27
2022-12-29T09:56:34.549Z,99653.76
2022-12-29T09:58:38.999Z,99644.75
2022-12-29T10:00:43.447Z,99648.88
2022-12-29T10:02:52.471Z,99656.22
2022-12-29T10:04:57.049Z,99648.31
2022-12-29T10:07:31.428Z,99645.93
2022-12-29T10:09:35.756Z,99649.55
2022-12-29T10:11:40.067Z,99637.08
2022-12-29T10:13:44.566Z,99632.24
2022-12-29T10:15:48.879Z,99638.39
2022-12-29T10:17:53.223Z,99644.5
2022-12-29T10:19:57.670Z,99648.06
2022-12-29T10:22:02.025Z,99638.38
2022-12-29T10:24:06.366Z,99629.87
2022-12-29T10:26:10.808Z,99628.23
2022-12-29T10:28:15.228Z,99626.92
2022-12-29T10:30:19.647Z,99626.61
2022-12-29T10:32:23.979Z,99609.42
2022-12-29T10:34:28.293Z,99613.36
2022-12-29T10:36:32.654Z,99609.32
2022-12-29T10:38:37.054Z,99616.05
2022-12-29T10:40:41.427Z,99610.58
2022-12-29T10:42:45.857Z,99613.05
2022-12-29T10:44:50.264Z,99619.41
2022-12-29T10:46:54.629Z,99613.02
2022-12-29T10:48:58.974Z,99613.08
2022-12-29T10:51:03.728Z,99608.97
2022-12-29T10:53:08.263Z,99615.5
2022-12-29T10:55:12.606Z,99624.34
2022-12-29T10:57:16.985Z,99616.02
2022-12-29T10:59:21.392Z,99621.89
2022-12-29T11:01:26.256Z,99612.68
2022-12-29T11:03:30.957Z,99610.13
2022-12-29T11:05:35.498Z,99608.91
2022-12-29T11:07:39.867Z,99612.81
2022-12-29T11:09:44.795Z,99610.36
2022-12-29T11:11:49.125Z,99608.27
2022-12-29T11:13:53.473Z,99603.08
2022-12-29T11:15:57.807Z,99610
2022-12-29T11:18:02.308Z,99592.61
2022-12-29T11:20:06.700Z,99594.41
2022-12-29T11:22:11.021Z,99594.02
2022-12-29T11:24:15.407Z,99589.53
2022-12-29T11:26:19.763Z,99581.01
2022-12-29T11:28:24.114Z,99588.59
2022-12-29T11:30:28.555Z,99584.03
2022-12-29T11:32:32.880Z,99577.05
2022-12-29T11:34:37.390Z,99582.14
2022-12-29T11:36:41.730Z,99581.27
2022-12-29T11:38:46.145Z,99580.14
2022-12-29T11:40:50.529Z,99583.69
2022-12-29T11:42:54.961Z,99580.85
2022-12-29T11:44:59.345Z,99574.36
2022-12-29T11:47:03.681Z,99583.63
2022-12-29T11:49:08.105Z,99596.66
2022-12-29T11:51:12.470Z,99587.61
2022-12-29T11:53:16.912Z,99568.28
2022-12-29T11:55:21.316Z,99576.71
2022-12-29T11:57:25.697Z,99578.43
2022-12-29T11:59:30.079Z,99570.43
2022-12-29T12:01:34.565Z,99574.22
2022-12-29T12:03:39.330Z,99573.98
2022-12-29T12:05:44.020Z,99574.4
2022-12-29T12:07:48.385Z,99568.63
2022-12-29T12:10:13.320Z,99570.33
2022-12-29T12:15:13.510Z,99562.67
2022-12-29T12:17:17.998Z,99557.2
2022-12-29T12:19:22.328Z,99551.05
2022-12-29T12:21:26.700Z,99555.64
2022-12-29T12:23:31.019Z,99556.64
2022-12-29T12:25:35.400Z,99551.17
2022-12-29T12:27:39.749Z,99549.23
2022-12-29T12:29:44.260Z,99549.95
2022-12-29T12:31:48.638Z,99553.88
2022-12-29T12:33:52.977Z,99552.25
2022-12-29T12:35:57.317Z,99557.83
2022-12-29T12:38:01.765Z,99546.44
2022-12-29T12:40:06.230Z,99560.39
2022-12-29T12:42:10.627Z,99562.17
2022-12-29T12:44:15.108Z,99550.35
2022-12-29T12:46:19.690Z,99552.7
2022-12-29T12:48:25.081Z,99545.2
2022-12-29T12:50:29.985Z,99549.73
2022-12-29T12:52:34.437Z,99545.09
2022-12-29T12:54:38.962Z,99550.3
2022-12-29T12:56:43.469Z,99546.88
2022-12-29T12:58:47.817Z,99538.17
2022-12-29T13:00:52.187Z,99549.72
2022-12-29T13:02:57.097Z,99545.98
2022-12-29T13:05:01.901Z,99554.83
2022-12-29T13:07:06.393Z,99555.93
2022-12-29T13:09:10.713Z,99557.59
2022-12-29T13:11:15.068Z,99550.52
2022-12-29T13:13:19.669Z,99556.49
2022-12-29T13:15:24.133Z,99557.16
2022-12-29T13:17:28.495Z,99558.6
2022-12-29T13:19:32.809Z,99552.84
2022-12-29T13:21:37.144Z,99552.06
2022-12-29T13:23:41.493Z,99534.67
2022-12-29T13:25:45.859Z,99540.45
2022-12-29T13:27:50.158Z,99552.84
2022-12-29T13:29:54.549Z,99550.22
2022-12-29T13:31:58.945Z,99554.41
2022-12-29T13:34:03.273Z,99555.57
2022-12-29T13:36:07.745Z,99559.67
2022-12-29T13:38:12.087Z,99562.42
2022-12-29T13:40:16.657Z,99558.25
2022-12-29T13:42:21.062Z,99567.92
2022-12-29T13:44:25.459Z,99566.1
2022-12-29T13:46:29.990Z,99575.5
2022-12-29T13:48:34.505Z,99579.05
2022-12-29T13:50:38.826Z,99582.46
2022-12-29T13:52:43.142Z,99583.37
2022-12-29T13:54:47.596Z,99583.59
2022-12-29T13:56:51.988Z,99584.36
2022-12-29T13:58:56.447Z,99580.8
2022-12-29T14:01:00.884Z,99582.42
2022-12-29T14:03:05.778Z,99584.42
2022-12-29T14:05:10.457Z,99584.95
2022-12-29T14:07:14.863Z,99582.48
2022-12-29T14:09:20.831Z,99576.98
2022-12-29T14:11:25.217Z,99577.31
2022-12-29T14:13:29.622Z,99573.17
2022-12-29T14:15:34.046Z,99573.82
2022-12-29T14:17:38.521Z,99576.98
2022-12-29T14:19:42.996Z,99572.97
2022-12-29T14:21:47.380Z,99583.13
2022-12-29T14:23:51.857Z,99582.7
2022-12-29T14:25:56.220Z,99584.56
2022-12-29T14:28:00.734Z,99587.89
2022-12-29T14:30:05.058Z,99584.19
2022-12-29T14:32:09.469Z,99579.1
2022-12-29T14:34:13.832Z,99580.55
2022-12-29T14:36:18.233Z,99591.8
2022-12-29T14:38:22.663Z,99585.11
2022-12-29T14:40:27.263Z,99585.36
2022-12-29T14:42:31.866Z,99589.67
2022-12-29T14:44:36.264Z,99594.86
2022-12-29T14:46:45.388Z,99594.7
2022-12-29T14:48:49.817Z,99594.48
2022-12-29T14:50:54.117Z,99593.94
2022-12-29T14:53:04.815Z,99593.17
2022-12-29T14:55:09.125Z,99597.67
2022-12-29T14:57:13.443Z,99593.14
2022-12-29T14:59:17.824Z,99602.51
2022-12-29T15:01:22.341Z,99600.19
2022-12-29T15:03:27.191Z,99599.89
2022-12-29T15:05:31.528Z,99596.19
2022-12-29T15:07:35.879Z,99592.64
2022-12-29T15:09:40.240Z,99585.36
2022-12-29T15:11:44.563Z,99592.69
2022-12-29T15:13:49.033Z,99594.07
2022-12-29T15:15:53.441Z,99598.11
2022-12-29T15:17:57.835Z,99595.52
2022-12-29T15:20:02.222Z,99596.05
2022-12-29T15:22:06.901Z,99597.77
2022-12-29T15:24:11.293Z,99601.61
2022-12-29T15:26:15.623Z,99608.11
2022-12-29T15:28:20.038Z,99602.12
2022-12-29T15:30:24.405Z,99601.64
2022-12-29T15:32:28.796Z,99603.94
2022-12-29T15:34:33.542Z,99604.76
2022-12-29T15:36:38.087Z,99606.72
2022-12-29T15:38:42.533Z,99603.95
2022-12-29T15:40:46.909Z,99605.61
2022-12-29T15:42:51.247Z,99607.89
2022-12-29T15:45:11.690Z,99610.98
2022-12-29T15:47:16.146Z,99610.72
2022-12-29T15:49:20.506Z,99610.78
2022-12-29T15:51:25.475Z,99610.19
2022-12-29T15:53:29.851Z,99614.02
2022-12-29T15:55:34.258Z,99613.73
2022-12-29T15:57:38.672Z,99615.47
2022-12-29T15:59:42.998Z,99612.65
2022-12-29T16:01:47.967Z,99608.23
2022-12-29T16:03:52.724Z,99612.7
2022-12-29T16:05:57.324Z,99613.83
2022-12-29T16:08:01.705Z,99613.8
2022-12-29T16:10:06.077Z,99612.89
2022-12-29T16:12:10.490Z,99612.04
2022-12-29T16:14:14.876Z,99612.88
2022-12-29T16:16:19.351Z,99611.2
2022-12-29T16:18:23.818Z,99606.84
2022-12-29T16:20:28.176Z,99613
2022-12-29T16:22:32.803Z,99615.66
2022-12-29T16:24:37.180Z,99619.55
2022-12-29T16:26:41.531Z,99615.63
2022-12-29T16:28:45.914Z,99617.73
2022-12-29T16:30:50.488Z,99621.44
2022-12-29T16:32:54.990Z,99616.61
2022-12-29T16:34:59.351Z,99609.08
2022-12-29T16:37:03.931Z,99615.03
2022-12-29T16:39:08.422Z,99605.08
2022-12-29T16:41:12.804Z,99614.5
2022-12-29T16:43:17.219Z,99620.22
2022-12-29T16:45:21.573Z,99619.37
2022-12-29T16:47:25.953Z,99617.47
2022-12-29T16:49:30.456Z,99614.52
2022-12-29T16:51:34.792Z,99625.02
2022-12-29T16:53:39.121Z,99627.29
2022-12-29T16:55:43.572Z,99627.08
2022-12-29T16:57:47.941Z,99617.38
2022-12-29T16:59:52.275Z,99613.67
2022-12-29T17:01:56.834Z,99621.77
2022-12-29T17:04:01.419Z,99623.51
2022-12-29T17:06:05.869Z,99624.48
2022-12-29T17:08:10.211Z,99621.52
2022-12-29T17:10:14.539Z,99624.19
2022-12-29T17:12:18.939Z,99627.48
2022-12-29T17:14:23.269Z,99628.58
2022-12-29T17:16:27.789Z,99628.11
2022-12-29T17:18:32.214Z,99631.8
2022-12-29T17:20:36.616Z,99634.47
2022-12-29T17:22:41.032Z,99628.27
2022-12-29T17:24:45.404Z,99636
2022-12-29T17:26:49.903Z,99633.56
2022-12-29T17:28:54.299Z,99629.55
2022-12-29T17:30:58.865Z,99634.59
2022-12-29T17:33:03.348Z,99633.58
2022-12-29T17:35:07.683Z,99638.18
2022-12-29T17:37:12.053Z,99639.39
2022-12-29T17:39:16.427Z,99641.07
2022-12-29T17:41:20.815Z,99636.78
2022-12-29T17:43:25.175Z,99639.22
2022-12-29T17:45:34.860Z,99639.44
2022-12-29T17:47:39.321Z,99639.64
2022-12-29T17:49:43.668Z,99646.59
2022-12-29T17:51:48.055Z,99641.07
2022-12-29T17:53:52.400Z,99644.78
2022-12-29T17:55:56.850Z,99651.64
2022-12-29T17:58:01.303Z,99655.28
2022-12-29T18:00:05.660Z,99659.29
2022-12-29T18:02:10.241Z,99657.36
2022-12-29T18:04:14.942Z,99661.58
2022-12-29T18:06:19.435Z,99662.14
2022-12-29T18:08:23.789Z,99661.84
2022-12-29T18:10:28.274Z,99661.53
2022-12-29T18:12:32.635Z,99665.05
2022-12-29T18:14:37.078Z,99674.9
2022-12-29T18:16:41.411Z,99678.86
2022-12-29T18:18:45.767Z,99680.63
2022-12-29T18:20:50.203Z,99680.88
2022-12-29T18:22:54.621Z,99681.09
2022-12-29T18:24:59.039Z,99678.66
2022-12-29T18:27:03.535Z,99682.39
2022-12-29T18:29:07.880Z,99684.5
2022-12-29T18:31:12.482Z,99683.72
2022-12-29T18:33:26.136Z,99676.66
2022-12-29T18:35:30.851Z,99683.64
2022-12-29T18:37:35.233Z,99676.17
2022-12-29T18:39:39.613Z,99683.14
2022-12-29T18:41:44.078Z,99680.89
2022-12-29T18:43:48.516Z,99685.02
2022-12-29T18:45:53.062Z,99684.13
2022-12-29T18:47:57.522Z,99680.55
2022-12-29T18:50:02.023Z,99677.06
2022-12-29T18:52:06.392Z,99680.26
2022-12-29T18:54:10.850Z,99684.16
2022-12-29T18:56:15.278Z,99684.09
2022-12-29T18:58:19.727Z,99684.75
2022-12-29T19:00:24.165Z,99677.71
2022-12-29T19:02:28.613Z,99680.09
2022-12-29T19:04:33.060Z,99679.84
2022-12-29T19:06:37.547Z,99671.95
2022-12-29T19:08:41.977Z,99666.17
2022-12-29T19:10:46.553Z,99668.13
2022-12-29T19:12:50.948Z,99669.02
2022-12-29T19:14:55.517Z,99672.58
2022-12-29T19:16:59.899Z,99669.31
2022-12-29T19:19:10.776Z,99665.65
2022-12-29T19:21:15.145Z,99666.95
2022-12-29T19:23:19.498Z,99675.36
2022-12-29T19:25:24.051Z,99676
2022-12-29T19:27:28.429Z,99672.89
2022-12-29T19:29:32.856Z,99684.59
2022-12-29T19:31:37.324Z,99672.44
2022-12-29T19:33:41.751Z,99669.37
2022-12-29T19:35:46.210Z,99666.88
2022-12-29T19:37:50.533Z,99670.92
2022-12-29T19:39:54.883Z,99672.81
2022-12-29T19:42:06.219Z,99682.12
2022-12-29T19:44:10.581Z,99684.74
2022-12-29T19:46:15.218Z,99684.81
2022-12-29T19:48:19.740Z,99685.31
2022-12-29T19:50:24.341Z,99687.05
2022-12-29T19:52:28.719Z,99687.33
2022-12-29T19:54:33.082Z,99683.96
2022-12-29T19:56:37.493Z,99681.73
2022-12-29T19:58:48.085Z,99678.06
2022-12-29T20:00:52.702Z,99674.28
2022-12-29T20:02:57.813Z,99687.63
2022-12-29T20:05:02.535Z,99692.28
2022-12-29T20:07:06.940Z,99693.95
2022-12-29T20:09:16.368Z,99691.04
2022-12-29T20:11:20.878Z,99693.2
2022-12-29T20:13:25.239Z,99695.68
2022-12-29T20:15:29.640Z,99700.07
2022-12-29T20:18:14.396Z,99702.92
2022-12-29T20:20:19.262Z,99706.11
2022-12-29T20:22:23.653Z,99707.31
2022-12-29T20:24:28.090Z,99707.7
2022-12-29T20:26:32.765Z,99713.45
2022-12-29T20:28:37.205Z,99712.17
2022-12-29T20:30:41.588Z,99711.96
2022-12-29T20:32:45.976Z,99714.25
2022-12-29T20:34:50.385Z,99718.55
2022-12-29T20:36:55.043Z,99728.73
2022-12-29T20:38:59.519Z,99725.79
2022-12-29T20:41:03.974Z,99731.71
2022-12-29T20:43:08.347Z,99738.81
2022-12-29T20:45:12.703Z,99735.39
2022-12-29T20:47:17.080Z,99736.63
2022-12-29T20:49:21.437Z,99739.91
2022-12-29T20:51:25.755Z,99737.7
2022-12-29T20:53:30.142Z,99731.87
2022-12-29T20:55:34.518Z,99724.19
2022-12-29T20:58:23.390Z,99732.37
2022-12-29T21:00:28.912Z,99730.34
2022-12-29T21:02:33.772Z,99731.34
2022-12-29T21:05:23.573Z,99724
2022-12-29T21:07:29.208Z,99723.03
2022-12-29T21:09:33.599Z,99730.66
2022-12-29T21:11:37.925Z,99728.16
2022-12-29T21:13:42.294Z,99726.63
2022-12-29T21:15:46.752Z,99725.66
2022-12-29T21:17:51.265Z,99722.33
2022-12-29T21:19:55.602Z,99720.29
2022-12-29T21:21:59.958Z,99719.73
2022-12-29T21:24:04.331Z,99725.71
2022-12-29T21:26:09.168Z,99726.3
2022-12-29T21:28:13.683Z,99729.98
2022-12-29T21:30:18.044Z,99726.81
2022-12-29T21:32:22.497Z,99728.23
2022-12-29T21:34:26.958Z,99733.13
2022-12-29T21:36:31.280Z,99734.97
2022-12-29T21:38:35.678Z,99738.82
2022-12-29T21:40:40.004Z,99747.13
2022-12-29T21:42:44.409Z,99751.73
2022-12-29T21:44:48.809Z,99757.88
2022-12-29T21:46:53.292Z,99754.83
2022-12-29T21:48:57.654Z,99755.14
2022-12-29T21:51:02.056Z,99755.44
2022-12-29T21:53:06.420Z,99754.88
2022-12-29T21:55:10.819Z,99760.8
2022-12-29T21:57:22.037Z,99759.64
2022-12-29T21:59:26.394Z,99744.72
2022-12-29T22:01:31.258Z,99746.7
2022-12-29T22:03:36.066Z,99741.84
2022-12-29T22:05:40.521Z,99740.44
2022-12-29T22:07:44.923Z,99734.57
2022-12-29T22:09:49.293Z,99734.39
2022-12-29T22:11:53.694Z,99736.56
2022-12-29T22:13:58.041Z,99732.42
2022-12-29T22:16:02.623Z,99732.66
2022-12-29T22:18:07.134Z,99731.23
2022-12-29T22:20:11.528Z,99725.09
2022-12-29T22:22:16.096Z,99725.57
2022-12-29T22:24:20.631Z,99724.02
2022-12-29T22:26:25.177Z,99720.9
2022-12-29T22:28:29.790Z,99711.77
2022-12-29T22:30:34.162Z,99712.84
2022-12-29T22:32:38.630Z,99711.42
2022-12-29T22:34:42.980Z,99712.44
2022-12-29T22:36:47.356Z,99709.11
2022-12-29T22:38:51.769Z,99718.21
2022-12-29T22:40:56.289Z,99720.27
2022-12-29T22:43:00.700Z,99722.28
2022-12-29T22:45:05.235Z,99715.31
2022-12-29T22:47:09.623Z,99713.36
2022-12-29T22:49:14.061Z,99715.05
2022-12-29T22:51:18.403Z,99716.49
2022-12-29T22:53:22.752Z,99717.67
2022-12-29T22:55:27.214Z,99712.67
2022-12-29T22:57:31.575Z,99711.45
2022-12-29T22:59:35.951Z,99715.89
2022-12-29T23:01:40.674Z,99725.31
2022-12-29T23:03:45.651Z,99723
2022-12-29T23:05:50.188Z,99717.94
2022-12-29T23:07:54.582Z,99713.92
2022-12-29T23:09:59.012Z,99709.83
2022-12-29T23:12:03.398Z,99717.14
2022-12-29T23:14:07.828Z,99720.98
2022-12-29T23:16:12.319Z,99719.22
2022-12-29T23:18:16.924Z,99718.38
2022-12-29T23:20:21.383Z,99723.8
2022-12-29T23:22:26.003Z,99715.02
2022-12-29T23:24:30.378Z,99716.48
2022-12-29T23:26:34.731Z,99717.63
2022-12-29T23:28:39.089Z,99720.39
2022-12-29T23:30:43.443Z,99725.66
2022-12-29T23:32:47.938Z,99728.13
2022-12-29T23:34:52.261Z,99729.33
2022-12-29T23:36:56.653Z,99725.08
2022-12-29T23:39:00.996Z,99726.23
2022-12-29T23:41:05.360Z,99731.78
2022-12-29T23:43:09.717Z,99730.39
2022-12-29T23:45:14.082Z,99729.03
2022-12-29T23:47:18.599Z,99733.73
2022-12-29T23:49:22.956Z,99733.89
2022-12-29T23:51:27.338Z,99738.52
2022-12-29T23:53:31.730Z,99744.31
2022-12-29T23:55:36.109Z,99746.95
2022-12-29T23:57:40.461Z,99751.89
2022-12-29T23:59:44.943Z,99746.69
